Leduc, Canada
Current Conditions -  °F | °C
As of 9:00 PM on Thursday 20 Nov 2014 (Local Time) from CYEG Reporting Station
Overcast Overcast  
Wind Chill: 34°   Ceiling: 9200
Heat Index: 39°   Visibility: 15mi
Dew Point: 32°   Wind: 7mph
Humidity: 75%   Direction: 280°W
Pressure: 29.5"   Gusts: NA
Location:  53.27°N, 113.53°W
Report Text: CYEG 210400Z 28006KT 15SM FEW040 SCT067 OVC092 04/M00 A2950 RMK SC1AC3AC4 SLP024
Loading
Personal Weather Stations






























Interactive Weather Map New forecast layout! Learn more

10-Day Weather Forecast

Advertisements
Track Severe Weather on mobile